Time;durP1;ratioP1;P1;durP2;ratioP2;P2;SDS_P1;SDS_P2;PMS_P1;PMS_P2;Temp;Humidity;BMP_temperature;BMP_pressure;BME280_temperature;BME280_humidity;BME280_pressure;Samples;Min_cycle;Max_cycle;Signal;HPM_P1;HPM_P2
2021/04/05 00:02:13;;;;;;;34.05;16.45;;;;;;;-0.56;93.22;100510.34;1739807;82;21048;-41
2021/04/05 00:04:42;;;;;;;30.32;18.02;;;;;;;-0.47;93.41;100504.22;1752352;80;21067;-41
2021/04/05 00:07:11;;;;;;;33.02;16.40;;;;;;;-0.40;93.50;100500.17;1756100;81;21143;-41
2021/04/05 00:09:41;;;;;;;40.30;19.40;;;;;;;-0.38;93.47;100501.95;1749305;81;21536;-42
2021/04/05 00:12:10;;;;;;;44.10;18.15;;;;;;;-0.35;93.48;100496.06;1741078;81;21430;-42
2021/04/05 00:14:38;;;;;;;51.95;17.15;;;;;;;-0.35;93.36;100504.97;1688764;83;21954;-41
2021/04/05 00:17:06;;;;;;;52.38;18.20;;;;;;;-0.38;93.24;100507.04;1722094;82;21240;-43
2021/04/05 00:19:36;;;;;;;52.62;18.67;;;;;;;-0.40;93.30;100509.92;1769342;80;21062;-43
2021/04/05 00:22:04;;;;;;;56.08;19.92;;;;;;;-0.38;93.43;100500.68;1731865;82;21209;-43
2021/04/05 00:24:33;;;;;;;53.02;19.90;;;;;;;-0.33;93.53;100498.23;1746082;80;21357;-42
2021/04/05 00:27:01;;;;;;;80.15;20.30;;;;;;;-0.30;93.61;100496.65;1739854;82;21187;-43
2021/04/05 00:29:29;;;;;;;53.35;19.35;;;;;;;-0.25;93.69;100490.42;1734382;80;20989;-42
2021/04/05 00:31:57;;;;;;;46.02;18.17;;;;;;;-0.20;93.78;100486.31;1715927;81;20979;-42
2021/04/05 00:34:24;;;;;;;55.33;16.85;;;;;;;-0.13;93.87;100489.00;1768763;80;21319;-42
2021/04/05 00:36:53;;;;;;;57.43;18.30;;;;;;;-0.06;93.91;100487.94;1710246;82;21019;-42
2021/04/05 00:39:21;;;;;;;72.03;19.12;;;;;;;0.03;94.04;100482.22;1752967;80;21029;-42
2021/04/05 00:41:48;;;;;;;64.00;18.90;;;;;;;0.10;94.05;100480.66;1753163;81;21059;-41
2021/04/05 00:44:16;;;;;;;33.65;16.95;;;;;;;0.17;94.14;100471.50;1758862;81;21170;-40
2021/04/05 00:46:43;;;;;;;37.90;17.12;;;;;;;0.26;94.23;100468.77;1696009;83;21209;-42
2021/04/05 00:49:12;;;;;;;38.95;17.20;;;;;;;0.32;94.10;100464.24;1730643;81;21406;-42
2021/04/05 00:51:41;;;;;;;46.98;17.20;;;;;;;0.34;93.96;100470.63;1729621;82;21480;-42
2021/04/05 00:54:10;;;;;;;44.10;17.50;;;;;;;0.30;93.73;100461.20;1761414;80;21213;-42
2021/04/05 00:56:37;;;;;;;63.42;18.45;;;;;;;0.20;93.40;100457.56;1757065;80;21690;-42
2021/04/05 00:59:06;;;;;;;42.25;18.30;;;;;;;0.09;93.13;100458.58;1695599;81;21159;-41
2021/04/05 01:01:34;;;;;;;35.28;17.42;;;;;;;-0.01;92.99;100464.72;1682062;82;21407;-41
2021/04/05 01:04:02;;;;;;;37.38;17.67;;;;;;;-0.09;92.95;100467.50;1728099;82;21325;-41
2021/04/05 01:06:33;;;;;;;56.83;21.20;;;;;;;-0.15;93.02;100473.28;1727290;81;21660;-42
2021/04/05 01:09:01;;;;;;;48.38;19.30;;;;;;;-0.18;93.24;100473.21;1722804;82;21579;-41
2021/04/05 01:11:29;;;;;;;42.67;17.65;;;;;;;-0.12;93.62;100478.88;1718707;81;21140;-41
2021/04/05 01:13:58;;;;;;;35.48;16.57;;;;;;;-0.01;93.96;100478.73;1702177;83;21336;-41
2021/04/05 01:16:29;;;;;;;28.23;16.27;;;;;;;0.11;94.14;100470.93;1726996;81;21144;-42
2021/04/05 01:18:57;;;;;;;30.77;16.17;;;;;;;0.23;94.31;100463.61;1740942;81;21113;-42
2021/04/05 01:21:25;;;;;;;31.10;16.77;;;;;;;0.25;94.26;100465.77;1740780;82;21180;-42
2021/04/05 01:23:54;;;;;;;35.95;16.45;;;;;;;0.23;94.11;100458.91;1740960;82;21192;-43
2021/04/05 01:26:21;;;;;;;31.82;14.78;;;;;;;0.19;94.04;100463.48;1741260;81;21468;-43
2021/04/05 01:28:49;;;;;;;28.77;15.90;;;;;;;0.16;94.05;100457.05;1732863;81;21095;-42
2021/04/05 01:31:16;;;;;;;33.55;16.70;;;;;;;0.13;94.11;100455.31;1718100;81;21049;-42
2021/04/05 01:33:44;;;;;;;27.85;15.50;;;;;;;0.10;94.04;100454.81;1726160;80;20985;-40
2021/04/05 01:36:14;;;;;;;38.40;16.02;;;;;;;0.09;94.03;100460.73;1730725;81;21039;-41
2021/04/05 01:38:45;;;;;;;36.05;16.23;;;;;;;0.06;93.97;100455.95;1748249;80;21365;-41
2021/04/05 01:41:17;;;;;;;40.52;16.40;;;;;;;0.04;94.05;100458.88;1735316;82;21015;-41
2021/04/05 01:43:45;;;;;;;37.35;16.90;;;;;;;0.03;94.06;100444.44;1733647;82;21205;-41
2021/04/05 01:46:14;;;;;;;37.00;17.15;;;;;;;0.05;94.13;100446.60;1741116;82;21139;-42
2021/04/05 01:48:42;;;;;;;38.35;17.10;;;;;;;0.02;94.05;100446.53;1725639;80;21130;-42
2021/04/05 01:51:13;;;;;;;37.08;17.80;;;;;;;-0.05;94.03;100441.69;1690024;82;22228;-41
2021/04/05 01:53:42;;;;;;;37.78;18.35;;;;;;;-0.12;93.94;100448.73;1731731;81;21197;-42
2021/04/05 01:56:11;;;;;;;32.53;18.92;;;;;;;-0.18;93.97;100440.13;1721581;81;21488;-42
2021/04/05 01:58:41;;;;;;;32.93;17.95;;;;;;;-0.19;94.05;100441.34;1730872;81;21118;-43
2021/04/05 02:01:16;;;;;;;37.48;18.67;;;;;;;-0.24;94.00;100438.70;1725364;82;21692;-42
2021/04/05 02:03:43;;;;;;;37.30;19.80;;;;;;;-0.32;93.91;100439.78;1737901;82;22355;-43
2021/04/05 02:06:28;;;;;;;38.33;21.33;;;;;;;-0.41;93.92;100439.52;1728480;82;21656;-42
2021/04/05 02:08:55;;;;;;;36.28;19.52;;;;;;;-0.47;93.97;100443.18;1736668;80;22462;-42
2021/04/05 02:11:27;;;;;;;34.03;18.98;;;;;;;-0.54;93.96;100443.84;1728179;81;20961;-41
2021/04/05 02:13:57;;;;;;;32.70;18.98;;;;;;;-0.61;93.94;100452.98;1701850;82;21159;-41
2021/04/05 02:16:27;;;;;;;43.58;21.02;;;;;;;-0.70;93.90;100456.12;1728256;82;21202;-41
2021/04/05 02:18:58;;;;;;;52.48;21.52;;;;;;;-0.70;94.18;100456.12;1734802;81;21095;-42
2021/04/05 02:21:27;;;;;;;36.30;19.87;;;;;;;-0.66;94.44;100455.39;1750685;80;21201;-43
2021/04/05 02:23:56;;;;;;;35.23;18.50;;;;;;;-0.62;94.51;100457.23;1747497;80;21611;-42
2021/04/05 02:26:25;;;;;;;39.67;19.35;;;;;;;-0.61;94.51;100452.59;1740112;80;20928;-42
2021/04/05 02:28:54;;;;;;;45.58;21.12;;;;;;;-0.60;94.57;100458.13;1759232;80;21368;-43
2021/04/05 02:31:24;;;;;;;43.98;20.00;;;;;;;-0.62;94.48;100457.23;1727712;81;21083;-41
2021/04/05 02:33:53;;;;;;;34.75;17.10;;;;;;;-0.66;94.35;100462.17;1739192;81;21714;-41
2021/04/05 02:36:28;;;;;;;29.20;18.60;;;;;;;-0.67;94.42;100453.67;1736266;82;20974;-41
2021/04/05 02:39:00;;;;;;;39.30;19.90;;;;;;;-0.60;94.64;100449.62;1732338;81;21014;-42
2021/04/05 02:41:29;;;;;;;67.80;22.65;;;;;;;-0.61;94.54;100456.80;1733947;81;21441;-42
2021/04/05 02:43:57;;;;;;;131.07;24.72;;;;;;;-0.63;94.40;100454.63;1736024;81;21227;-43
2021/04/05 02:46:30;;;;;;;110.48;25.62;;;;;;;-0.66;94.43;100457.93;1729964;82;21225;-42
2021/04/05 02:48:59;;;;;;;88.58;25.95;;;;;;;-0.63;94.56;100463.13;1701510;83;20993;-42
2021/04/05 02:51:27;;;;;;;83.25;24.40;;;;;;;-0.61;94.66;100462.77;1678389;83;21209;-42
2021/04/05 02:53:59;;;;;;;63.30;21.90;;;;;;;-0.59;94.64;100459.84;1743471;82;21203;-41
2021/04/05 02:56:27;;;;;;;61.37;21.27;;;;;;;-0.60;94.54;100459.39;1741675;82;21125;-42
2021/04/05 02:58:57;;;;;;;50.63;21.57;;;;;;;-0.60;94.60;100461.06;1743854;81;20958;-42
2021/04/05 03:01:26;;;;;;;55.58;18.52;;;;;;;-0.59;94.60;100456.03;1725026;82;21241;-42
2021/04/05 03:03:56;;;;;;;54.98;19.48;;;;;;;-0.61;94.60;100456.41;1725977;82;21126;-42
2021/04/05 03:06:26;;;;;;;43.98;18.37;;;;;;;-0.64;94.42;100457.98;1729617;82;21373;-42
2021/04/05 03:20:22;;;;;;;43.83;23.65;;;;;;;-1.10;94.17;100448.23;1803300;79;22645;-43
2021/04/05 03:22:50;;;;;;;45.90;23.15;;;;;;;-1.21;94.19;100448.34;1757803;81;20989;-42
2021/04/05 03:25:20;;;;;;;52.62;25.30;;;;;;;-1.29;94.17;100444.30;1757795;81;21407;-43
2021/04/05 03:27:48;;;;;;;59.10;29.32;;;;;;;-1.35;94.12;100443.70;1757727;81;21580;-43
2021/04/05 03:30:21;;;;;;;45.50;21.70;;;;;;;-1.36;94.18;100443.25;1757805;81;21041;-41
2021/04/05 03:32:57;;;;;;;52.48;23.47;;;;;;;-1.37;94.29;100438.14;1757722;81;21567;-42
2021/04/05 03:35:27;;;;;;;;;;;;;;;-1.38;94.35;100434.72;1760381;81;20970;-41
2021/04/05 03:37:55;;;;;;;55.43;27.22;;;;;;;-1.34;94.47;100431.88;1757818;81;22113;-42
2021/04/05 03:40:23;;;;;;;46.13;20.50;;;;;;;-1.30;94.58;100429.87;1778593;80;21002;-42
2021/04/05 03:43:03;;;;;;;42.33;19.12;;;;;;;-1.22;94.76;100430.95;1754241;81;20963;-42
2021/04/05 03:45:46;;;;;;;38.10;19.20;;;;;;;-1.13;94.85;100437.98;1724252;83;21091;-42
2021/04/05 03:48:24;;;;;;;45.30;22.20;;;;;;;-1.06;94.88;100435.22;1702747;82;21500;-43
2021/04/05 03:51:21;;;;;;;37.53;19.50;;;;;;;-0.96;94.99;100438.47;1718542;83;21446;-43
2021/04/05 03:53:56;;;;;;;41.42;19.87;;;;;;;-0.88;94.94;100438.30;1718498;83;21050;-44
2021/04/05 03:56:26;;;;;;;24.55;13.55;;;;;;;-0.78;94.92;100443.20;1718932;82;21127;-43
2021/04/05 03:58:55;;;;;;;35.03;19.27;;;;;;;-0.69;94.92;100445.56;1703720;84;20962;-42
2021/04/05 04:01:27;;;;;;;30.32;16.40;;;;;;;-0.61;95.01;100445.35;1703349;84;20990;-42
2021/04/05 04:06:39;;;;;;;33.85;16.32;;;;;;;-0.42;95.07;100445.42;1720899;82;21006;-43
2021/04/05 04:08:59;;;;;;;38.78;16.65;;;;;;;-0.34;95.09;100449.05;1701855;82;21037;-43
2021/04/05 04:11:29;;;;;;;23.30;14.43;;;;;;;-0.24;95.13;100446.73;1679778;82;21030;-43
2021/04/05 04:13:57;;;;;;;28.38;14.98;;;;;;;-0.15;95.12;100446.96;1733085;82;21684;-43
2021/04/05 04:16:25;;;;;;;51.13;18.20;;;;;;;-0.06;95.14;100444.67;1729603;82;21203;-43
2021/04/05 04:18:55;;;;;;;41.37;17.23;;;;;;;0.02;95.17;100441.05;1724314;83;20959;-44
2021/04/05 04:21:23;;;;;;;27.93;15.55;;;;;;;0.13;95.26;100438.77;1713401;82;21040;-43
2021/04/05 04:23:51;;;;;;;28.60;15.30;;;;;;;0.24;95.22;100437.31;1697128;83;20995;-42
2021/04/05 04:26:18;;;;;;;27.32;17.05;;;;;;;0.31;95.20;100438.72;1696470;84;21017;-43
2021/04/05 04:28:46;;;;;;;33.35;17.62;;;;;;;0.39;95.26;100441.91;1696427;84;21151;-42
2021/04/05 04:31:14;;;;;;;29.87;17.00;;;;;;;0.49;95.25;100434.45;1695981;84;20998;-43
2021/04/05 04:33:41;;;;;;;27.73;15.08;;;;;;;0.60;95.30;100436.84;1721144;83;20958;-43
2021/04/05 04:36:09;;;;;;;23.57;14.83;;;;;;;0.72;95.33;100432.44;1724937;83;21070;-43
2021/04/05 04:38:37;;;;;;;28.87;16.20;;;;;;;0.80;95.31;100429.63;1725074;83;21050;-43
2021/04/05 04:41:05;;;;;;;34.90;16.60;;;;;;;0.91;95.32;100427.73;1724966;83;21394;-43
2021/04/05 04:43:33;;;;;;;46.77;17.15;;;;;;;0.99;95.27;100425.77;1724009;83;21098;-43
2021/04/05 04:46:01;;;;;;;42.67;23.15;;;;;;;1.08;95.21;100434.02;1724965;83;21027;-43
2021/04/05 04:48:29;;;;;;;52.43;22.62;;;;;;;1.16;95.11;100426.96;1724952;83;21011;-43
2021/04/05 04:50:57;;;;;;;39.13;21.42;;;;;;;1.26;95.20;100430.13;1724669;83;21050;-44
2021/04/05 04:53:24;;;;;;;46.18;20.97;;;;;;;1.38;95.22;100427.78;1724928;83;21209;-43
2021/04/05 04:55:52;;;;;;;44.98;21.20;;;;;;;1.45;95.11;100426.22;1724950;83;21022;-43
2021/04/05 04:58:20;;;;;;;45.48;19.42;;;;;;;1.53;95.08;100425.09;1724967;83;21591;-43
2021/04/05 05:00:48;;;;;;;34.50;17.80;;;;;;;1.60;95.00;100417.14;1720940;83;21011;-43
2021/04/05 05:03:15;;;;;;;42.05;18.10;;;;;;;1.68;95.04;100412.62;1712862;83;21110;-43
2021/04/05 05:05:43;;;;;;;40.63;18.17;;;;;;;1.81;95.23;100414.09;1712850;83;21179;-43
2021/04/05 05:08:11;;;;;;;51.63;16.30;;;;;;;1.99;95.36;100408.02;1712816;83;21050;-43
2021/04/05 05:10:38;;;;;;;32.23;15.90;;;;;;;2.18;95.34;100395.94;1709469;83;21014;-43
2021/04/05 05:13:06;;;;;;;33.15;16.25;;;;;;;2.33;95.22;100396.58;1695905;84;21057;-43
2021/04/05 05:15:33;;;;;;;38.58;18.92;;;;;;;2.47;95.12;100397.66;1695939;84;20971;-43
2021/04/05 05:18:01;;;;;;;43.48;19.10;;;;;;;2.65;95.08;100407.27;1690783;84;21509;-43
2021/04/05 05:20:29;;;;;;;35.10;16.67;;;;;;;2.80;95.01;100404.04;1698851;82;20999;-42
2021/04/05 05:23:00;;;;;;;26.45;16.05;;;;;;;2.91;94.69;100404.61;1742259;82;21672;-42
2021/04/05 05:25:30;;;;;;;45.23;17.75;;;;;;;3.01;94.58;100405.15;1742194;82;20973;-42
2021/04/05 05:28:01;;;;;;;30.60;14.60;;;;;;;3.15;94.62;100406.59;1758628;81;21058;-42
2021/04/05 05:30:29;;;;;;;18.32;11.95;;;;;;;3.32;94.58;100402.09;1742205;82;22279;-42
2021/04/05 05:33:04;;;;;;;27.37;12.53;;;;;;;3.48;94.48;100408.22;1742163;82;21019;-42
2021/04/05 05:35:36;;;;;;;26.68;14.80;;;;;;;3.62;94.25;100407.91;1719337;82;21018;-43
2021/04/05 05:38:04;;;;;;;22.55;13.78;;;;;;;3.69;93.86;100401.16;1742120;82;21027;-43
2021/04/05 05:40:34;;;;;;;20.40;12.40;;;;;;;3.84;93.88;100403.86;1742177;82;21003;-43
2021/04/05 05:43:11;;;;;;;27.67;12.65;;;;;;;4.00;93.76;100403.97;1742183;82;21207;-43
2021/04/05 05:46:04;;;;;;;20.62;13.08;;;;;;;4.02;93.17;100399.30;1752522;81;21007;-43
2021/04/05 05:49:13;;;;;;;24.95;13.65;;;;;;;4.07;92.73;100399.34;1733545;82;20944;-43
2021/04/05 05:52:07;;;;;;;30.25;13.60;;;;;;;4.16;92.76;100387.00;1733519;82;21011;-43
2021/04/05 05:55:10;;;;;;;20.68;13.62;;;;;;;4.24;92.44;100388.34;1702532;82;21074;-43
2021/04/05 05:58:06;;;;;;;21.33;11.88;;;;;;;4.34;92.01;100387.98;1772534;81;21368;-42
2021/04/05 06:00:47;;;;;;;21.67;12.60;;;;;;;4.47;91.52;100388.50;1773006;81;20951;-42
2021/04/05 06:03:39;;;;;;;17.70;13.25;;;;;;;4.60;91.22;100386.41;1772866;81;21030;-42
2021/04/05 06:06:36;;;;;;;19.95;12.35;;;;;;;4.84;90.45;100388.66;1756694;81;20962;-42
2021/04/05 06:09:23;;;;;;;14.60;11.53;;;;;;;4.90;89.98;100386.55;1820257;76;22793;-41
2021/04/05 06:12:21;;;;;;;19.27;12.53;;;;;;;4.96;89.77;100388.30;1806131;79;21050;-42
2021/04/05 06:15:05;;;;;;;16.35;11.93;;;;;;;5.08;88.91;100387.48;1817427;79;21176;-42
2021/04/05 06:17:51;;;;;;;17.12;11.00;;;;;;;5.33;87.20;100389.67;1817752;78;20911;-43
2021/04/05 06:20:28;;;;;;;18.15;10.88;;;;;;;5.33;87.20;100389.67;1774434;80;20997;-44
2021/04/05 06:23:22;;;;;;;15.03;11.45;;;;;;;5.45;86.12;100391.00;1754507;81;21049;-43
2021/04/05 06:26:23;;;;;;;17.48;10.88;;;;;;;5.38;85.61;100394.38;1769039;80;21022;-44
2021/04/05 06:29:13;;;;;;;16.80;10.98;;;;;;;5.45;85.17;100388.42;1785320;79;21392;-42
2021/04/05 06:32:21;;;;;;;18.85;10.72;;;;;;;5.67;83.74;100383.29;1785543;80;20974;-42
2021/04/05 06:35:22;;;;;;;14.65;10.38;;;;;;;5.86;83.00;100382.89;1784870;80;20986;-42
2021/04/05 06:38:02;;;;;;;18.62;10.88;;;;;;;6.03;82.11;100380.34;1785564;79;21029;-42
2021/04/05 06:40:31;;;;;;;17.98;10.78;;;;;;;6.10;80.91;100370.91;1785686;80;21451;-42
2021/04/05 06:43:18;;;;;;;16.67;10.32;;;;;;;6.15;79.99;100375.61;1785532;79;21322;-43
2021/04/05 06:45:57;;;;;;;14.03;9.43;;;;;;;6.20;79.50;100375.62;1772613;80;20999;-42
2021/04/05 06:48:45;;;;;;;14.80;9.75;;;;;;;6.22;78.29;100374.31;1705907;82;21602;-43
2021/04/05 06:51:56;;;;;;;17.25;10.13;;;;;;;6.11;77.85;100367.90;1730507;82;21021;-42
2021/04/05 06:58:26;;;;;;;14.70;10.25;;;;;;;6.00;77.98;100361.04;1888855;75;22644;-41
2021/04/05 07:01:02;;;;;;;13.83;9.73;;;;;;;6.07;78.09;100359.77;1787614;80;21041;-42
2021/04/05 07:04:15;;;;;;;12.78;10.00;;;;;;;6.37;78.13;100365.30;1774502;79;21386;-42
2021/04/05 07:06:57;;;;;;;15.40;10.78;;;;;;;6.57;77.73;100361.81;1787511;80;20962;-44
2021/04/05 07:09:45;;;;;;;16.73;11.75;;;;;;;6.74;77.00;100362.59;1794339;79;21013;-41
2021/04/05 07:12:50;;;;;;;13.70;9.75;;;;;;;7.05;76.64;100355.16;1794753;80;20973;-43
2021/04/05 07:48:20;;;;;;;8.93;6.95;;;;;;;9.41;60.08;100311.89;1824231;77;22831;-41
2021/04/05 07:51:04;;;;;;;10.13;6.55;;;;;;;9.11;59.85;100304.58;1775478;79;20990;-42
2021/04/05 07:53:48;;;;;;;11.22;6.40;;;;;;;8.91;60.12;100310.04;1777734;78;21357;-42
2021/04/05 07:56:21;;;;;;;8.05;6.97;;;;;;;8.72;58.55;100310.73;1775367;78;21052;-43
2021/04/05 07:59:14;;;;;;;7.00;6.33;;;;;;;8.56;60.04;100304.89;1741146;81;21045;-41
2021/04/05 08:01:52;;;;;;;11.38;6.47;;;;;;;8.52;60.27;100301.93;1750022;80;21064;-42
2021/04/05 08:04:38;;;;;;;8.83;6.60;;;;;;;8.48;60.52;100296.78;1752617;80;21353;-41
2021/04/05 08:07:35;;;;;;;7.10;6.40;;;;;;;8.68;60.09;100293.55;1745278;81;21205;-43
2021/04/05 08:10:12;;;;;;;7.47;6.78;;;;;;;8.91;59.64;100280.35;1722898;82;21304;-42
2021/04/05 08:12:59;;;;;;;11.85;6.83;;;;;;;9.26;58.76;100276.83;1827199;76;22784;-41
2021/04/05 08:15:53;;;;;;;10.45;6.72;;;;;;;9.48;57.86;100270.44;1735481;81;21093;-42
2021/04/05 08:18:38;;;;;;;9.33;6.90;;;;;;;9.61;57.76;100265.91;1889946;76;22606;-42
2021/04/05 08:21:18;;;;;;;8.20;6.50;;;;;;;9.50;56.58;100269.10;1747822;77;79185;-40
2021/04/05 08:24:19;;;;;;;8.20;5.55;;;;;;;9.51;56.37;100265.64;1714498;83;21431;-42
2021/04/05 08:27:10;;;;;;;9.18;6.50;;;;;;;9.61;56.31;100263.75;1714525;83;20960;-41
2021/04/05 08:30:07;;;;;;;8.85;6.15;;;;;;;9.97;56.00;100249.73;1714442;83;20963;-42
2021/04/05 08:32:54;;;;;;;8.25;6.00;;;;;;;10.27;55.01;100250.45;1709857;82;20988;-41
2021/04/05 08:35:43;;;;;;;7.80;6.47;;;;;;;10.47;54.27;100248.77;1709867;84;20936;-42
2021/04/05 08:38:38;;;;;;;13.20;6.53;;;;;;;10.54;54.10;100252.08;1714752;82;21356;-42
2021/04/05 08:41:38;;;;;;;11.88;7.12;;;;;;;10.59;53.28;100242.48;1709770;82;20944;-41
2021/04/05 08:44:30;;;;;;;16.32;7.95;;;;;;;10.52;52.64;100241.78;1714727;82;20967;-42
2021/04/05 08:46:59;;;;;;;15.25;7.78;;;;;;;9.88;53.01;100242.16;1693619;83;20976;-41
2021/04/05 08:49:29;;;;;;;22.35;9.20;;;;;;;9.50;56.24;100243.27;1679952;84;21123;-42
2021/04/05 08:52:08;;;;;;;10.23;7.45;;;;;;;9.11;57.83;100241.31;1684537;85;22359;-42
2021/04/05 08:54:40;;;;;;;12.45;8.53;;;;;;;8.81;58.08;100236.17;1679830;84;21126;-42
2021/04/05 08:57:15;;;;;;;12.63;8.85;;;;;;;8.44;58.96;100238.78;1684621;85;21129;-42
2021/04/05 08:59:59;;;;;;;9.98;8.30;;;;;;;8.16;59.69;100243.00;1683115;85;21044;-41
2021/04/05 09:02:38;;;;;;;12.43;8.13;;;;;;;8.07;60.72;100240.55;1680018;85;21017;-42
2021/04/05 09:05:10;;;;;;;19.30;7.10;;;;;;;8.02;61.50;100241.88;1684108;85;21588;-42
2021/04/05 09:07:54;;;;;;;18.77;8.05;;;;;;;7.90;61.57;100238.58;1676183;85;21593;-42
2021/04/05 09:25:37;;;;;;;30.30;15.53;;;;;;;7.87;63.52;100223.56;1794554;79;22094;-43
2021/04/05 09:28:38;;;;;;;21.05;14.40;;;;;;;7.72;64.39;100225.45;1765910;80;20970;-42
2021/04/05 09:31:33;;;;;;;24.02;14.00;;;;;;;7.61;64.19;100219.54;1758163;80;22080;-43
2021/04/05 09:34:49;;;;;;;16.97;7.53;;;;;;;7.44;65.67;100217.97;1755470;80;21065;-44
2021/04/05 09:37:31;;;;;;;6.20;5.60;;;;;;;7.29;62.73;100216.84;1758249;80;21054;-44
2021/04/05 09:40:39;;;;;;;9.48;5.20;;;;;;;7.11;60.45;100209.67;1770128;80;21009;-44
2021/04/05 09:43:45;;;;;;;5.78;5.05;;;;;;;6.91;60.63;100205.98;1773439;80;21042;-43
2021/04/05 09:46:52;;;;;;;9.37;5.43;;;;;;;6.82;60.77;100199.17;1776884;80;21191;-43
2021/04/05 09:49:52;;;;;;;8.05;6.55;;;;;;;6.86;62.00;100200.02;1780745;80;21073;-43
2021/04/05 09:52:41;;;;;;;11.78;8.75;;;;;;;6.88;62.56;100202.98;1759095;79;21093;-43
2021/04/05 09:55:16;;;;;;;10.95;9.00;;;;;;;6.95;62.31;100199.10;1763574;80;21065;-43
2021/04/05 09:58:05;;;;;;;14.63;8.20;;;;;;;7.05;62.02;100193.84;1775374;80;21137;-42
2021/04/05 10:00:34;;;;;;;8.60;6.33;;;;;;;7.26;61.93;100193.70;1758292;80;21252;-42
2021/04/05 10:03:07;;;;;;;9.23;7.22;;;;;;;7.49;60.47;100192.18;1766018;80;21003;-43
2021/04/05 10:05:42;;;;;;;6.65;5.95;;;;;;;7.65;59.76;100187.72;1712177;83;21058;-42
2021/04/05 10:08:26;;;;;;;20.60;11.33;;;;;;;7.96;59.54;100192.55;1691029;83;21034;-42
2021/04/05 10:10:56;;;;;;;9.08;6.80;;;;;;;8.32;58.37;100180.48;1720253;83;20959;-42
2021/04/05 10:13:26;;;;;;;14.98;9.35;;;;;;;8.76;57.65;100182.06;1699163;83;21141;-42
2021/04/05 10:15:57;;;;;;;13.80;9.28;;;;;;;9.08;56.98;100178.11;1688559;83;20967;-42
2021/04/05 10:18:26;;;;;;;13.00;11.28;;;;;;;9.14;55.46;100177.99;1716541;83;21651;-42
2021/04/05 10:20:54;;;;;;;18.65;11.12;;;;;;;9.27;56.34;100171.34;1699778;83;20966;-43
2021/04/05 10:23:25;;;;;;;8.98;7.95;;;;;;;9.25;55.35;100173.10;1697132;83;21119;-42
2021/04/05 10:25:56;;;;;;;10.68;8.25;;;;;;;9.09;54.44;100168.19;1744022;81;22280;-42
2021/04/05 10:28:31;;;;;;;12.60;9.08;;;;;;;8.98;55.22;100168.82;1740272;81;20939;-42
2021/04/05 10:31:04;;;;;;;17.60;10.70;;;;;;;8.93;55.69;100164.14;1765682;81;20951;-43
2021/04/05 10:33:39;;;;;;;227.78;178.85;;;;;;;8.95;56.02;100156.80;1747291;81;21053;-43
2021/04/05 10:36:11;;;;;;;28.07;17.90;;;;;;;9.27;55.76;100142.93;1746503;81;21046;-43
2021/04/05 10:38:40;;;;;;;14.75;10.60;;;;;;;9.72;55.42;100136.91;1757065;80;21354;-43
2021/04/05 10:41:10;;;;;;;18.50;11.08;;;;;;;10.28;54.28;100127.55;1742448;81;21073;-43
2021/04/05 10:43:46;;;;;;;27.58;15.98;;;;;;;10.62;52.62;100121.61;1720638;82;21567;-43
2021/04/05 10:46:29;;;;;;;12.23;9.95;;;;;;;10.77;51.88;100119.55;1735377;81;21058;-43
2021/04/05 10:49:04;;;;;;;14.38;8.80;;;;;;;10.81;50.74;100116.00;1757721;81;21546;-43
2021/04/05 10:51:44;;;;;;;14.70;9.90;;;;;;;10.66;51.28;100112.48;1756874;81;21169;-42
2021/04/05 10:54:37;;;;;;;12.15;9.20;;;;;;;10.79;50.73;100103.54;1758306;81;21006;-44
2021/04/05 10:57:11;;;;;;;20.37;14.23;;;;;;;11.01;49.95;100103.83;1681437;85;21074;-43
2021/04/05 10:59:52;;;;;;;15.95;9.90;;;;;;;11.16;49.78;100102.58;1682575;84;21067;-42
2021/04/05 11:02:31;;;;;;;31.80;12.20;;;;;;;11.28;49.48;100104.45;1761294;81;21014;-43
2021/04/05 11:05:10;;;;;;;18.35;11.50;;;;;;;11.33;49.80;100099.53;1752268;81;21191;-43
2021/04/05 11:07:38;;;;;;;193.95;73.90;;;;;;;11.27;48.83;100101.00;1753516;81;21019;-43
2021/04/05 11:10:13;;;;;;;39.38;16.87;;;;;;;11.14;49.85;100097.05;1739688;81;20947;-43
2021/04/05 11:12:44;;;;;;;18.42;11.08;;;;;;;11.17;50.20;100096.97;1747202;81;21034;-43
2021/04/05 11:15:15;;;;;;;24.98;12.03;;;;;;;10.87;49.27;100097.71;1693132;84;21587;-43
2021/04/05 11:17:44;;;;;;;25.48;11.80;;;;;;;10.45;50.66;100090.97;1674654;84;22264;-43
2021/04/05 11:20:14;;;;;;;25.57;10.78;;;;;;;10.33;51.35;100093.37;1761620;81;21208;-43
2021/04/05 11:22:42;;;;;;;25.52;12.03;;;;;;;10.20;50.72;100097.10;1759132;81;20987;-43
2021/04/05 11:25:22;;;;;;;61.95;12.82;;;;;;;10.00;51.67;100094.55;1739207;81;21089;-43
2021/04/05 11:27:59;;;;;;;42.30;11.73;;;;;;;9.94;50.64;100097.70;1717223;82;21172;-43
2021/04/05 11:30:27;;;;;;;47.08;20.27;;;;;;;9.85;50.25;100100.03;1744297;82;21342;-43
2021/04/05 11:32:55;;;;;;;71.00;12.37;;;;;;;9.96;50.59;100098.52;1744338;82;20959;-43
2021/04/05 11:35:30;;;;;;;42.67;15.85;;;;;;;10.05;50.09;100097.87;1720789;82;21034;-43
2021/04/05 11:38:09;;;;;;;21.20;11.25;;;;;;;10.35;51.09;100095.90;1762964;80;21006;-43
2021/04/05 11:40:37;;;;;;;28.42;11.80;;;;;;;10.73;51.48;100099.78;1775110;80;21050;-43
2021/04/05 11:43:16;;;;;;;24.23;13.83;;;;;;;11.02;50.75;100092.58;1773887;80;21318;-43
2021/04/05 11:45:47;;;;;;;34.03;17.65;;;;;;;11.14;50.89;100092.70;1761232;80;21022;-43
2021/04/05 11:48:22;;;;;;;32.38;18.57;;;;;;;11.15;51.43;100088.39;1774191;80;20971;-43
2021/04/05 11:50:50;;;;;;;43.80;20.70;;;;;;;11.21;51.25;100087.75;1775423;80;21610;-43
2021/04/05 11:53:35;;;;;;;29.67;20.37;;;;;;;11.16;50.75;100086.20;1760874;80;20935;-43
2021/04/05 11:56:20;;;;;;;63.70;30.50;;;;;;;11.06;51.56;100088.18;1772399;80;21371;-43
2021/04/05 11:58:59;;;;;;;28.00;14.33;;;;;;;11.17;50.88;100080.96;1770542;80;22205;-43
2021/04/05 12:01:29;;;;;;;39.20;20.40;;;;;;;11.31;50.44;100079.75;1746340;80;20943;-43
2021/04/05 12:03:59;;;;;;;151.82;75.55;;;;;;;11.39;50.35;100079.08;1737000;82;20994;-43
2021/04/05 12:06:38;;;;;;;150.22;70.40;;;;;;;11.39;50.01;100071.31;1744578;82;20999;-43
2021/04/05 12:09:31;;;;;;;69.60;31.65;;;;;;;11.27;50.45;100072.95;1744162;82;21339;-43
2021/04/05 12:12:04;;;;;;;90.60;42.93;;;;;;;11.18;51.39;100073.59;1744324;82;21558;-43
2021/04/05 12:14:32;;;;;;;372.88;176.72;;;;;;;11.06;51.87;100067.00;1721086;82;21057;-43
2021/04/05 12:17:01;;;;;;;166.25;67.70;;;;;;;10.92;52.06;100073.84;1744311;82;21551;-43
2021/04/05 12:19:37;;;;;;;15.70;9.88;;;;;;;10.88;51.73;100063.63;1758712;80;21066;-43
2021/04/05 12:22:05;;;;;;;14.15;6.00;;;;;;;10.70;52.18;100065.78;1734643;82;26016;-43
2021/04/05 12:24:49;;;;;;;11.68;6.72;;;;;;;10.55;52.25;100067.02;1742433;82;21051;-43
2021/04/05 12:27:17;;;;;;;10.80;6.42;;;;;;;10.60;52.35;100063.00;1740813;81;21034;-43
2021/04/05 12:29:45;;;;;;;10.28;5.70;;;;;;;10.68;51.26;100058.93;1767786;81;21022;-43
2021/04/05 12:32:19;;;;;;;13.80;7.00;;;;;;;10.60;50.82;100059.98;1769662;81;20943;-43
2021/04/05 12:34:52;;;;;;;12.33;7.42;;;;;;;10.56;50.99;100061.37;1765259;81;21365;-43
2021/04/05 12:37:19;;;;;;;12.82;6.80;;;;;;;10.48;50.54;100057.25;1768147;81;21070;-44
2021/04/05 12:39:55;;;;;;;9.80;6.28;;;;;;;10.41;50.23;100058.30;1765815;81;21085;-43
2021/04/05 12:42:30;;;;;;;5.75;4.75;;;;;;;10.32;50.25;100054.58;1736791;81;21010;-43
2021/04/05 12:45:00;;;;;;;9.40;4.22;;;;;;;10.19;49.97;100048.84;1753238;81;20979;-43
2021/04/05 12:47:34;;;;;;;17.12;6.95;;;;;;;10.09;50.61;100055.13;1752723;81;21356;-43
2021/04/05 12:50:07;;;;;;;5.10;4.70;;;;;;;9.89;51.32;100058.58;1748528;81;22613;-43
2021/04/05 12:52:38;;;;;;;10.88;8.20;;;;;;;9.74;50.92;100053.72;1745345;81;21015;-42
2021/04/05 12:55:14;;;;;;;22.95;18.87;;;;;;;9.59;51.64;100054.91;1699362;84;21138;-42
2021/04/05 12:57:42;;;;;;;7.08;5.10;;;;;;;9.49;51.75;100051.23;1754307;81;20955;-43
2021/04/05 13:00:20;;;;;;;26.52;5.33;;;;;;;9.46;51.73;100055.13;1695838;83;21372;-43
2021/04/05 13:03:02;;;;;;;130.70;88.15;;;;;;;9.45;52.21;100057.77;1673589;84;21055;-42